Pagrindinis puslapis
METAR-TAF:

METAR-TAF

Oro uostai :

King Salmon, Aliaska, Jungtinės Amerikos Valstijos

platuma: 58-40-36N, ilguma: 156-38-57W, Aukštis: 17 m

Dabartinis oras

Ataskaita buvo paskelbta 1 valandą ir 0 minutes, ne 07:54 UTC
Vėjas 4 kt iš Pietų
Temperatūra 13°C
Drėgmė 41%
Slėgis 1016 hPa
Matomumas: 16.1 km
Su prošvaistėmis ne aukštis 700 ft

METAR: PAKN 310754Z 17004KT 10SM BKN007 13/ A3000

Laikas: 00:54 (08:54 UTC)

Prognozė

Ataskaita buvo paskelbta 3 valandos ir 20 minutes, ne 05:34 UTC
Prognozė galioja nuo 31 metu 06 UTC su 01 metu 06 UTC
Vėjas 11 kt iš Pietų/Pietryčių
Matomumas: 10 km
Išsisklaidę debesys ne aukštis 600 ft
Su prošvaistėmis ne aukštis 1500 ft
Nuo 31 metu 1000 UTC
Vėjas 11 kt iš Pietų
Matomumas: 9.7 km
Apsiniaukę ne aukštis 1500 ft
rūkana
Nuo 01 metu 0100 UTC
Vėjas 12 kt iš Pietų/Pietryčių su gūsio iki 19 kt
Matomumas: 9.7 km
Apsiniaukę ne aukštis 1500 ft
rūkana

TAF: PAKN 310534Z 3106/0106 16011KT P6SM SCT006 BKN015 FM311000 17011KT 6SM BR OVC015 FM010100 16012G19KT 6SM BR OVC015

Orai ataskaitas ir orų prognozės (METAR, TAF).

turimą stotys yra geltonos ir raudonos taškus žemėlapyje.

Perkelti pele per norėdami pamatyti stoties vardą.

Tada spustelėkite, norėdami matyti oro stebėjimo ir prognozės.

Norėdami pakeisti žemėlapį: spustelėkite ant žalios mygtukų su juodo kryžiaus žemyn,; žalią mygtuką su brūkšneliu, jei norite nutolinti; arba žalių rodyklių gretimoms žemėlapius.


METAR-TAF: